WetterOnline ( http://www.wetteronline.de )

Wetter aktuell Kappeln

Aktuelles Wetter: Schönhagen (Ostseebad) (2m)

6-stündlich | Neueste Meldungen
Ortszeit Temperatur Wetter
Di, 16.10. 2:00 13.7° C bewölkt
Mo, 15.10. 20:00 12.6° C wolkenlos
Mo, 15.10. 14:00 16.8° C wolkenlos
Mo, 15.10. 8:00 11.2° C wolkenlos
Mo, 15.10. 2:00 15.2° C wolkenlos
So, 14.10. 20:00 17.3° C wolkenlos
So, 14.10. 14:00 16.4° C wolkenlos
So, 14.10. 8:00 13.6° C wolkenlos
Ortszeit Temperatur Wetter
Di, 16.10. 5:00 13.3° C leicht bewölkt
Di, 16.10. 4:50 13.3° C leicht bewölkt
Di, 16.10. 4:40 13.2° C wolkenlos
Di, 16.10. 4:30 13.2° C wolkenlos
Di, 16.10. 4:20 13.2° C wolkenlos
Di, 16.10. 4:10 13.3° C wolkenlos
Di, 16.10. 4:00 13.1° C leicht bewölkt
Di, 16.10. 3:30 13.5° C leicht bewölkt
Di, 16.10. 3:00 14.4° C leicht bewölkt
Di, 16.10. 2:30 14.2° C bedeckt
Di, 16.10. 2:00 13.7° C bewölkt
Ortszeit Relative Feuchte Sichtweite
Di, 16.10. 2:00 86% 18 km
Mo, 15.10. 20:00 97% 6 km
Mo, 15.10. 14:00 75% 9 km
Mo, 15.10. 8:00 85% 23 km
Mo, 15.10. 2:00 69% 30 km
So, 14.10. 20:00 68% 30 km
So, 14.10. 14:00 79% 12 km
So, 14.10. 8:00 80% 21 km
Ortszeit Relative Feuchte Sichtweite
Di, 16.10. 5:00 88% 12 km
Di, 16.10. 4:50 88% -
Di, 16.10. 4:40 87% -
Di, 16.10. 4:30 87% 14 km
Di, 16.10. 4:20 87% -
Di, 16.10. 4:10 87% -
Di, 16.10. 4:00 87% 15 km
Di, 16.10. 3:30 85% 15 km
Di, 16.10. 3:00 81% 21 km
Di, 16.10. 2:30 85% 19 km
Di, 16.10. 2:00 86% 18 km
Ortszeit Niederschlagsmenge Niederschlagsart
Di, 16.10. 2:00 0.0 l/m2 in 6 Std. -
Mo, 15.10. 20:00 0.0 l/m2 in 12 Std. -
Mo, 15.10. 14:00 0.0 l/m2 in 6 Std. -
Mo, 15.10. 8:00 0.0 l/m2 in 12 Std. -
Mo, 15.10. 2:00 0.0 l/m2 in 6 Std. -
So, 14.10. 20:00 0.1 l/m2 in 12 Std. Niederschlag
So, 14.10. 14:00 0.0 l/m2 in 6 Std. -
So, 14.10. 8:00 0.0 l/m2 in 12 Std. -
Ortszeit Niederschlagsmenge Niederschlagsart
Di, 16.10. 5:00 0.0 l/m2 in 1 Std. -
Di, 16.10. 4:50 keine Meldung -
Di, 16.10. 4:40 keine Meldung -
Di, 16.10. 4:30 0.0 l/m2 in 1 Std. -
Di, 16.10. 4:20 keine Meldung -
Di, 16.10. 4:10 keine Meldung -
Di, 16.10. 4:00 0.0 l/m2 in 1 Std. -
Di, 16.10. 3:30 0.0 l/m2 in 1 Std. -
Di, 16.10. 3:00 0.0 l/m2 in 1 Std. -
Di, 16.10. 2:30 0.0 l/m2 in 1 Std. -
Di, 16.10. 2:00 0.0 l/m2 in 1 Std. -
Ortszeit Stärke Spitze Richtung
km/h Bft. km/h Grad Sektor
Di, 16.10. 2:00 7 2 11 240° SW
Mo, 15.10. 20:00 2 1 19 160° S
Mo, 15.10. 14:00 11 2 14 120° SO
Mo, 15.10. 8:00 4 1 18 270° W
Mo, 15.10. 2:00 9 2 31 190° S
So, 14.10. 20:00 13 3 28 170° S
So, 14.10. 14:00 17 3 28 130° SO
So, 14.10. 8:00 17 3 24 150° SO
Ortszeit Stärke Spitze Richtung
km/h Bft. km/h Grad Sektor
Di, 16.10. 5:00 7 2 14 250° W
Di, 16.10. 4:50 7 2 - 250° W
Di, 16.10. 4:40 7 2 - 260° W
Di, 16.10. 4:30 11 2 14 250° W
Di, 16.10. 4:20 11 2 - 250° W
Di, 16.10. 4:10 11 2 - 250° W
Di, 16.10. 4:00 9 2 13 240° SW
Di, 16.10. 3:30 7 2 11 230° SW
Di, 16.10. 3:00 11 2 14 220° SW
Di, 16.10. 2:30 7 2 11 240° SW
Di, 16.10. 2:00 7 2 11 240° SW
Ortszeit Untergrenze Bedeckung Gattung
total tief tief mittel hoch
Di, 16.10. 2:00 2400 m 7/8 7/8 - - -
Mo, 15.10. 20:00 - 0/8 0/8 - - -
Mo, 15.10. 14:00 - 0/8 0/8 - - -
Mo, 15.10. 8:00 - 0/8 0/8 - - -
Mo, 15.10. 2:00 - 0/8 0/8 - - -
So, 14.10. 20:00 - 0/8 0/8 - - -
So, 14.10. 14:00 - 0/8 0/8 - - -
So, 14.10. 8:00 - 0/8 0/8 - - -
Ortszeit Bedeckungsgrad in Achtel und Wolkenuntergrenze
Di, 16.10. 5:00 3(3600m)
Di, 16.10. 4:50 3(3600m)
Di, 16.10. 4:40 keine Wolken
Di, 16.10. 4:30 keine Wolken
Di, 16.10. 4:20 keine Wolken
Di, 16.10. 4:10 keine Wolken
Di, 16.10. 4:00 2(3900m)
Di, 16.10. 3:30 4(3600m)
Di, 16.10. 3:00 1(2400m)
Di, 16.10. 2:30 8(2400m)
Di, 16.10. 2:00 7(2400m)
Ortszeit Luftdruck NN (hPa) Tendenz (hPa in 3 Std.)
Di, 16.10. 2:00 1015 + 0,7
Mo, 15.10. 20:00 1014 + 1,1
Mo, 15.10. 14:00 1013 - 0,3
Mo, 15.10. 8:00 1012 + 0,7
Mo, 15.10. 2:00 1011 + 0,2
So, 14.10. 20:00 1010 + 0,5
So, 14.10. 14:00 1011 - 1,4
So, 14.10. 8:00 1013 - 1,6
Ortszeit Luftdruck NN (hPa) Tendenz (hPa in 3 Std.)
Di, 16.10. 5:00 1015 + 0,3
Di, 16.10. 4:50 1015 keine Meldung
Di, 16.10. 4:40 1015 keine Meldung
Di, 16.10. 4:30 1016 + 0,6
Di, 16.10. 4:20 1016 keine Meldung
Di, 16.10. 4:10 1015 keine Meldung
Di, 16.10. 4:00 1015 + 0,6
Di, 16.10. 3:30 1015 + 0,5
Di, 16.10. 3:00 1015 + 0,4
Di, 16.10. 2:30 1015 + 0,6
Di, 16.10. 2:00 1015 + 0,7
Ortszeit Schneehöhe (cm)
Di, 16.10. 2:00 0
Mo, 15.10. 20:00 0
Mo, 15.10. 14:00 0
Mo, 15.10. 8:00 0
Mo, 15.10. 2:00 0
So, 14.10. 20:00 0
So, 14.10. 14:00 0
So, 14.10. 8:00 0
Ortszeit Schneehöhe (cm)
Di, 16.10. 5:00 0
Di, 16.10. 4:50 0
Di, 16.10. 4:40 0
Di, 16.10. 4:30 0
Di, 16.10. 4:20 0
Di, 16.10. 4:10 0
Di, 16.10. 4:00 0
Di, 16.10. 3:30 0
Di, 16.10. 3:00 0
Di, 16.10. 2:30 0
Di, 16.10. 2:00 0
Link zu dieser Seite / Seite empfehlen

Das Wetter in ...